createdAt,value
2022-11-20T00:00:10.211Z,70.63
2022-11-20T00:00:31.926Z,70.32
2022-11-20T00:00:54.139Z,71.07
2022-11-20T00:01:19.029Z,74.25
2022-11-20T00:01:41.265Z,70.03
2022-11-20T00:02:03.508Z,77.82
2022-11-20T00:02:25.769Z,74.55
2022-11-20T00:02:47.883Z,72.25
2022-11-20T00:03:09.597Z,69.50
2022-11-20T00:03:31.704Z,71.57
2022-11-20T00:03:55.480Z,67.75
2022-11-20T00:04:17.589Z,70.40
2022-11-20T00:04:40.436Z,71.88
2022-11-20T00:05:02.134Z,71.13
2022-11-20T00:05:23.831Z,70.43
2022-11-20T00:05:46.321Z,70.65
2022-11-20T00:06:11.580Z,64.60
2022-11-20T00:06:33.856Z,65.22
2022-11-20T00:06:55.959Z,66.13
2022-11-20T00:07:18.224Z,67.97
2022-11-20T00:07:40.478Z,67.32
2022-11-20T00:08:02.706Z,64.35
2022-11-20T00:08:24.454Z,71.78
2022-11-20T00:08:47.479Z,68.22
2022-11-20T00:09:11.561Z,67.00
2022-11-20T00:09:33.679Z,72.22
2022-11-20T00:09:55.841Z,70.05
2022-11-20T00:10:17.653Z,68.85
2022-11-20T00:10:40.616Z,70.32
2022-11-20T00:11:23.003Z,70.93
2022-11-20T00:11:44.934Z,71.15
2022-11-20T00:12:07.114Z,69.00
2022-11-20T00:12:29.229Z,68.80
2022-11-20T00:12:50.902Z,72.30
2022-11-20T00:13:12.621Z,78.85
2022-11-20T00:13:35.416Z,83.28
2022-11-20T00:13:59.043Z,82.13
2022-11-20T00:14:20.750Z,74.95
2022-11-20T00:14:42.516Z,83.93
2022-11-20T00:15:05.428Z,84.10
2022-11-20T00:15:27.555Z,75.45
2022-11-20T00:15:49.740Z,81.63
2022-11-20T00:16:12.673Z,81.65
2022-11-20T00:16:34.998Z,92.65
2022-11-20T00:16:56.707Z,86.40
2022-11-20T00:17:18.456Z,81.38
2022-11-20T00:17:40.665Z,76.65
2022-11-20T00:18:02.412Z,79.90
2022-11-20T00:18:24.554Z,79.32
2022-11-20T00:18:46.747Z,78.32
2022-11-20T00:19:08.815Z,79.45
2022-11-20T00:19:30.839Z,77.07
2022-11-20T00:19:52.916Z,82.97
2022-11-20T00:20:14.984Z,79.55
2022-11-20T00:20:36.761Z,77.72
2022-11-20T00:21:05.765Z,73.22
2022-11-20T00:21:29.330Z,75.60
2022-11-20T00:21:52.455Z,73.55
2022-11-20T00:22:14.872Z,72.97
2022-11-20T00:22:36.618Z,76.13
2022-11-20T00:22:58.786Z,75.18
2022-11-20T00:23:21.054Z,75.95
2022-11-20T00:23:43.600Z,74.68
2022-11-20T00:24:05.732Z,76.45
2022-11-20T00:24:27.530Z,72.25
2022-11-20T00:24:49.221Z,69.93
2022-11-20T00:25:11.362Z,72.80
2022-11-20T00:25:35.609Z,74.68
2022-11-20T00:25:57.566Z,73.32
2022-11-20T00:26:20.411Z,76.30
2022-11-20T00:26:42.509Z,74.90
2022-11-20T00:27:04.650Z,76.55
2022-11-20T00:27:26.330Z,76.80
2022-11-20T00:27:48.458Z,81.45
2022-11-20T00:28:10.579Z,74.63
2022-11-20T00:28:32.725Z,74.63
2022-11-20T00:28:56.433Z,77.05
2022-11-20T00:29:18.665Z,76.47
2022-11-20T00:29:40.453Z,79.75
2022-11-20T00:30:02.222Z,84.07
2022-11-20T00:30:23.936Z,80.53
2022-11-20T00:30:46.097Z,78.80
2022-11-20T00:31:09.621Z,87.18
2022-11-20T00:31:33.960Z,87.18
2022-11-20T00:31:55.645Z,80.65
2022-11-20T00:32:17.851Z,77.72
2022-11-20T00:32:39.571Z,80.97
2022-11-20T00:33:01.388Z,82.80
2022-11-20T00:33:23.088Z,78.65
2022-11-20T00:33:45.608Z,77.97
2022-11-20T00:34:07.740Z,83.55
2022-11-20T00:34:29.840Z,83.75
2022-11-20T00:34:52.196Z,79.95
2022-11-20T00:35:14.495Z,82.80
2022-11-20T00:35:36.646Z,81.13
2022-11-20T00:36:02.426Z,81.43
2022-11-20T00:36:29.091Z,80.00
2022-11-20T00:36:51.208Z,74.45
2022-11-20T00:37:12.950Z,81.32
2022-11-20T00:37:35.124Z,79.97
2022-11-20T00:37:56.842Z,75.00
2022-11-20T00:38:18.569Z,78.13
2022-11-20T00:38:40.793Z,77.65
2022-11-20T00:39:02.956Z,78.22
2022-11-20T00:39:25.056Z,74.93
2022-11-20T00:39:47.144Z,78.32
2022-11-20T00:40:09.535Z,77.05
2022-11-20T00:40:31.851Z,74.07
2022-11-20T00:41:01.297Z,72.93
2022-11-20T00:41:23.875Z,68.35
2022-11-20T00:41:45.973Z,67.38
2022-11-20T00:42:07.816Z,68.05
2022-11-20T00:42:29.755Z,66.88
2022-11-20T00:42:51.883Z,62.95
2022-11-20T00:43:13.951Z,67.32
2022-11-20T00:43:36.229Z,68.43
2022-11-20T00:43:58.727Z,66.15
2022-11-20T00:44:20.404Z,61.13
2022-11-20T00:44:42.557Z,63.08
2022-11-20T00:45:04.925Z,62.97
2022-11-20T00:45:27.076Z,60.42
2022-11-20T00:45:49.204Z,62.63
2022-11-20T00:46:16.445Z,58.88
2022-11-20T00:46:38.250Z,58.05
2022-11-20T00:46:59.974Z,58.25
2022-11-20T00:47:21.680Z,58.38
2022-11-20T00:47:43.489Z,55.10
2022-11-20T00:48:05.693Z,58.47
2022-11-20T00:48:27.983Z,57.67
2022-11-20T00:48:50.407Z,59.10
2022-11-20T00:49:12.162Z,60.78
2022-11-20T00:49:33.945Z,58.20
2022-11-20T00:49:56.057Z,60.25
2022-11-20T00:50:18.183Z,54.20
2022-11-20T00:50:41.044Z,54.13
2022-11-20T00:51:03.426Z,58.40
2022-11-20T00:51:27.108Z,55.00
2022-11-20T00:51:49.237Z,56.85
2022-11-20T00:52:10.993Z,60.15
2022-11-20T00:52:33.056Z,58.92
2022-11-20T00:52:55.146Z,59.92
2022-11-20T00:53:17.224Z,53.67
2022-11-20T00:53:38.948Z,58.53
2022-11-20T00:54:01.202Z,55.53
2022-11-20T00:54:23.462Z,59.60
2022-11-20T00:54:45.606Z,60.90
2022-11-20T00:55:07.852Z,57.83
2022-11-20T00:55:30.017Z,60.30
2022-11-20T00:55:59.593Z,61.83
2022-11-20T00:56:21.419Z,57.13
2022-11-20T00:56:43.585Z,56.85
2022-11-20T00:57:05.630Z,53.33
2022-11-20T00:57:27.373Z,54.20
2022-11-20T00:57:49.505Z,57.47
2022-11-20T00:58:14.439Z,57.63
2022-11-20T00:58:37.879Z,57.60
2022-11-20T00:59:01.810Z,55.15
2022-11-20T00:59:24.030Z,58.47
2022-11-20T00:59:46.206Z,55.90
2022-11-20T01:00:08.488Z,55.50
2022-11-20T01:00:30.646Z,61.65
2022-11-20T01:00:52.609Z,59.35
2022-11-20T01:01:16.425Z,57.90
2022-11-20T01:01:39.079Z,56.47
2022-11-20T01:02:00.887Z,57.60
2022-11-20T01:02:23.027Z,60.63
2022-11-20T01:02:44.809Z,57.92
2022-11-20T01:03:06.545Z,57.60
2022-11-20T01:03:28.600Z,58.83
2022-11-20T01:03:52.220Z,59.58
2022-11-20T01:04:13.935Z,58.13
2022-11-20T01:04:36.115Z,58.28
2022-11-20T01:04:58.246Z,56.83
2022-11-20T01:05:20.365Z,57.65
2022-11-20T01:05:42.487Z,60.35
2022-11-20T01:06:06.406Z,59.75
2022-11-20T01:06:34.481Z,57.42
2022-11-20T01:06:56.655Z,59.45
2022-11-20T01:07:18.884Z,60.40
2022-11-20T01:07:41.120Z,60.42
2022-11-20T01:08:03.373Z,64.75
2022-11-20T01:08:25.143Z,63.28
2022-11-20T01:08:48.317Z,62.03
2022-11-20T01:09:14.080Z,64.07
2022-11-20T01:09:36.270Z,65.00
2022-11-20T01:09:58.484Z,62.80
2022-11-20T01:10:20.599Z,65.07
2022-11-20T01:10:42.767Z,62.20
2022-11-20T01:11:06.491Z,63.65
2022-11-20T01:11:30.864Z,62.58
2022-11-20T01:11:53.023Z,61.13
2022-11-20T01:12:15.123Z,63.08
2022-11-20T01:12:37.290Z,59.80
2022-11-20T01:13:20.302Z,62.47
2022-11-20T01:13:48.624Z,62.35
2022-11-20T01:14:16.176Z,66.22
2022-11-20T01:14:38.387Z,62.88
2022-11-20T01:15:00.477Z,63.50
2022-11-20T01:15:22.634Z,60.67
2022-11-20T01:15:44.340Z,60.78
2022-11-20T01:16:16.837Z,59.95
2022-11-20T01:16:50.518Z,61.20
2022-11-20T01:17:12.472Z,62.78
2022-11-20T01:17:34.269Z,60.70
2022-11-20T01:17:56.371Z,64.70
2022-11-20T01:18:18.568Z,69.25
2022-11-20T01:18:44.107Z,69.30
2022-11-20T01:19:11.580Z,66.35
2022-11-20T01:19:34.593Z,65.13
2022-11-20T01:19:56.782Z,67.28
2022-11-20T01:20:18.890Z,67.65
2022-11-20T01:20:40.983Z,65.72
2022-11-20T01:21:07.152Z,67.10
2022-11-20T01:21:37.307Z,63.20
2022-11-20T01:21:59.584Z,63.33
2022-11-20T01:22:21.262Z,63.60
2022-11-20T01:22:43.398Z,64.13
2022-11-20T01:23:05.367Z,62.65
2022-11-20T01:23:27.103Z,62.45
2022-11-20T01:23:49.758Z,63.90
2022-11-20T01:24:16.390Z,61.28
2022-11-20T01:24:38.180Z,64.13
2022-11-20T01:24:59.866Z,59.63
2022-11-20T01:25:21.643Z,59.15
2022-11-20T01:25:43.768Z,61.38
2022-11-20T01:26:08.356Z,60.90
2022-11-20T01:26:32.416Z,62.22
2022-11-20T01:26:54.613Z,64.45
2022-11-20T01:27:16.293Z,63.88
2022-11-20T01:27:38.437Z,58.05
2022-11-20T01:28:00.507Z,60.33
2022-11-20T01:28:22.610Z,62.65
2022-11-20T01:28:45.052Z,63.92
2022-11-20T01:29:07.858Z,62.35
2022-11-20T01:29:29.662Z,54.75
2022-11-20T01:29:51.379Z,56.80
2022-11-20T01:30:13.650Z,58.28
2022-11-20T01:30:35.356Z,57.55
2022-11-20T01:30:57.674Z,55.58
2022-11-20T01:31:22.977Z,56.95
2022-11-20T01:31:45.410Z,57.88
2022-11-20T01:32:07.220Z,55.40
2022-11-20T01:32:29.027Z,55.30
2022-11-20T01:32:50.821Z,55.70
2022-11-20T01:33:12.910Z,53.10
2022-11-20T01:33:35.010Z,54.72
2022-11-20T01:33:59.456Z,55.20
2022-11-20T01:34:23.143Z,51.35
2022-11-20T01:34:45.284Z,52.35
2022-11-20T01:35:07.578Z,53.25
2022-11-20T01:35:29.765Z,55.70
2022-11-20T01:35:52.119Z,51.85
2022-11-20T01:36:14.679Z,52.85
2022-11-20T01:36:37.947Z,52.95
2022-11-20T01:37:00.106Z,56.63
2022-11-20T01:37:22.206Z,52.03
2022-11-20T01:37:44.227Z,51.67
2022-11-20T01:38:06.538Z,49.70
2022-11-20T01:38:28.224Z,50.83
2022-11-20T01:38:53.783Z,50.55
2022-11-20T01:39:20.611Z,45.97
2022-11-20T01:39:42.666Z,49.05
2022-11-20T01:40:05.000Z,48.60
2022-11-20T01:40:27.083Z,47.08
2022-11-20T01:40:56.717Z,45.35
2022-11-20T01:41:38.822Z,49.85
2022-11-20T01:42:19.517Z,50.13
2022-11-20T01:43:11.075Z,50.10
2022-11-20T01:43:33.297Z,45.47
2022-11-20T01:43:55.034Z,46.25
2022-11-20T01:44:19.323Z,46.10
2022-11-20T01:44:54.821Z,47.30
2022-11-20T01:45:35.387Z,47.88
2022-11-20T01:46:06.383Z,47.17
2022-11-20T01:46:28.883Z,46.78
2022-11-20T01:46:57.063Z,46.45
2022-11-20T01:47:27.927Z,46.67
2022-11-20T01:47:51.250Z,48.70
2022-11-20T01:48:13.291Z,48.80
2022-11-20T01:48:40.762Z,43.53
2022-11-20T01:49:05.592Z,46.67
2022-11-20T01:49:53.952Z,47.65
2022-11-20T01:50:25.340Z,45.38
2022-11-20T01:50:47.480Z,44.08
2022-11-20T01:51:20.018Z,48.70
2022-11-20T01:51:53.637Z,49.80
2022-11-20T01:52:19.349Z,43.58
2022-11-20T01:52:44.295Z,45.20
2022-11-20T01:53:11.400Z,46.80
2022-11-20T01:53:37.520Z,43.65
2022-11-20T01:54:04.325Z,46.70
2022-11-20T01:54:33.656Z,45.72
2022-11-20T01:55:08.066Z,46.53
2022-11-20T01:55:32.873Z,46.67
2022-11-20T01:55:56.420Z,42.13
2022-11-20T01:56:18.580Z,43.78
2022-11-20T01:56:43.607Z,49.60
2022-11-20T01:57:07.420Z,47.80
2022-11-20T01:57:31.542Z,48.95
2022-11-20T01:57:54.028Z,45.33
2022-11-20T01:58:17.228Z,47.10
2022-11-20T01:58:43.742Z,44.63
2022-11-20T01:59:07.708Z,45.05
2022-11-20T01:59:30.601Z,45.38
2022-11-20T01:59:55.479Z,45.72
2022-11-20T02:00:19.751Z,43.85
2022-11-20T02:00:41.784Z,45.03
2022-11-20T02:01:04.756Z,45.05
2022-11-20T02:01:27.025Z,44.80
2022-11-20T02:01:48.837Z,43.88
2022-11-20T02:02:10.635Z,43.50
2022-11-20T02:02:33.056Z,42.60
2022-11-20T02:02:59.111Z,49.75
2022-11-20T02:03:21.585Z,41.75
2022-11-20T02:03:45.263Z,42.30
2022-11-20T02:04:09.214Z,43.63
2022-11-20T02:04:31.526Z,42.97
2022-11-20T02:04:56.378Z,42.05
2022-11-20T02:05:39.407Z,42.13
2022-11-20T02:06:10.963Z,42.50
2022-11-20T02:06:52.125Z,41.30
2022-11-20T02:07:15.209Z,47.85
2022-11-20T02:07:37.930Z,48.03
2022-11-20T02:08:00.787Z,46.00
2022-11-20T02:08:23.507Z,45.00
2022-11-20T02:08:45.329Z,44.05
2022-11-20T02:09:07.501Z,44.67
2022-11-20T02:09:29.850Z,45.70
2022-11-20T02:09:57.393Z,46.55
2022-11-20T02:10:20.763Z,44.05
2022-11-20T02:10:42.930Z,44.92
2022-11-20T02:11:05.224Z,45.05
2022-11-20T02:11:27.354Z,41.78
2022-11-20T02:11:49.452Z,43.03
2022-11-20T02:12:32.292Z,44.42
2022-11-20T02:13:13.730Z,41.92
2022-11-20T02:13:44.550Z,44.25
2022-11-20T02:14:06.726Z,43.25
2022-11-20T02:14:29.060Z,42.90
2022-11-20T02:14:51.194Z,43.95
2022-11-20T02:15:13.405Z,46.00
2022-11-20T02:15:35.320Z,45.20
2022-11-20T02:15:57.311Z,45.90
2022-11-20T02:16:28.698Z,48.47
2022-11-20T02:16:51.383Z,50.63
2022-11-20T02:17:13.226Z,47.40
2022-11-20T02:17:34.967Z,45.42
2022-11-20T02:17:57.131Z,44.65
2022-11-20T02:18:20.664Z,46.42
2022-11-20T02:18:43.777Z,48.55
2022-11-20T02:19:10.673Z,49.78
2022-11-20T02:19:33.299Z,47.40
2022-11-20T02:19:55.569Z,49.63
2022-11-20T02:20:17.546Z,48.88
2022-11-20T02:20:40.520Z,45.45
2022-11-20T02:21:26.580Z,45.33
2022-11-20T02:21:50.795Z,46.38
2022-11-20T02:22:16.173Z,47.05
2022-11-20T02:22:49.854Z,44.65
2022-11-20T02:23:20.436Z,40.20
2022-11-20T02:24:05.256Z,42.22
2022-11-20T02:24:27.540Z,43.42
2022-11-20T02:24:50.587Z,45.70
2022-11-20T02:25:13.172Z,48.20
2022-11-20T02:25:36.861Z,46.22
2022-11-20T02:26:00.022Z,43.25
2022-11-20T02:26:22.771Z,44.03
2022-11-20T02:26:49.993Z,45.20
2022-11-20T02:27:15.627Z,43.25
2022-11-20T02:27:37.847Z,50.47
2022-11-20T02:27:59.900Z,48.13
2022-11-20T02:28:22.126Z,40.25
2022-11-20T02:28:44.012Z,42.33
2022-11-20T02:29:06.192Z,41.10
2022-11-20T02:29:33.528Z,42.47
2022-11-20T02:29:58.300Z,39.00
2022-11-20T02:30:20.698Z,42.35
2022-11-20T02:30:42.395Z,40.67
2022-11-20T02:31:04.210Z,42.25
2022-11-20T02:31:26.463Z,39.65
2022-11-20T02:31:48.962Z,38.15
2022-11-20T02:32:25.266Z,40.40
2022-11-20T02:32:46.981Z,43.88
2022-11-20T02:33:09.093Z,42.70
2022-11-20T02:33:30.828Z,37.80
2022-11-20T02:33:57.644Z,39.03
2022-11-20T02:34:19.789Z,38.15
2022-11-20T02:34:42.957Z,42.92
2022-11-20T02:35:20.924Z,36.50
2022-11-20T02:35:47.755Z,38.72
2022-11-20T02:36:15.433Z,36.78
2022-11-20T02:36:39.783Z,38.20
2022-11-20T02:37:01.984Z,39.25
2022-11-20T02:37:26.657Z,38.15
2022-11-20T02:37:50.025Z,37.55
2022-11-20T02:38:12.349Z,35.88
2022-11-20T02:38:34.578Z,35.80
2022-11-20T02:38:57.117Z,35.53
2022-11-20T02:39:20.561Z,32.60
2022-11-20T02:39:43.321Z,32.75
2022-11-20T02:40:05.676Z,34.35
2022-11-20T02:40:27.664Z,35.83
2022-11-20T02:40:55.099Z,31.20
2022-11-20T02:41:17.384Z,33.90
2022-11-20T02:41:40.226Z,34.97
2022-11-20T02:42:03.104Z,36.47
2022-11-20T02:42:25.231Z,36.15
2022-11-20T02:42:47.305Z,34.08
2022-11-20T02:43:09.455Z,34.15
2022-11-20T02:43:31.629Z,34.17
2022-11-20T02:43:53.327Z,33.80
2022-11-20T02:44:15.800Z,33.58
2022-11-20T02:44:37.656Z,31.30
2022-11-20T02:44:59.385Z,34.90
2022-11-20T02:45:21.274Z,32.03
2022-11-20T02:45:43.287Z,33.83
2022-11-20T02:46:08.152Z,34.63
2022-11-20T02:46:30.369Z,33.58
2022-11-20T02:46:52.067Z,33.00
2022-11-20T02:47:13.813Z,33.45
2022-11-20T02:47:35.979Z,33.72
2022-11-20T02:47:58.141Z,34.08
2022-11-20T02:48:20.375Z,33.42
2022-11-20T02:48:42.157Z,32.30
2022-11-20T02:49:05.051Z,32.63
2022-11-20T02:49:27.235Z,32.88
2022-11-20T02:49:49.378Z,34.00
2022-11-20T02:50:11.672Z,34.15
2022-11-20T02:50:33.760Z,31.98
2022-11-20T02:50:55.871Z,32.10
2022-11-20T02:51:17.957Z,33.90
2022-11-20T02:51:40.069Z,33.40
2022-11-20T02:52:02.471Z,32.08
2022-11-20T02:52:24.739Z,32.97
2022-11-20T02:52:46.962Z,32.38
2022-11-20T02:53:09.143Z,33.97
2022-11-20T02:53:30.882Z,30.35
2022-11-20T02:53:52.708Z,33.20
2022-11-20T02:54:14.549Z,33.28
2022-11-20T02:54:36.725Z,33.92
2022-11-20T02:54:58.456Z,34.97
2022-11-20T02:55:20.589Z,34.47
2022-11-20T02:55:42.753Z,31.75
2022-11-20T02:56:05.056Z,30.88
2022-11-20T02:56:27.293Z,32.50
2022-11-20T02:56:49.476Z,32.83
2022-11-20T02:57:11.205Z,34.83
2022-11-20T02:57:32.928Z,33.70
2022-11-20T02:57:55.062Z,32.58
2022-11-20T02:58:17.178Z,33.25
2022-11-20T02:58:38.966Z,33.17
2022-11-20T02:59:00.681Z,32.45
2022-11-20T02:59:22.822Z,33.25
2022-11-20T02:59:45.121Z,32.38
2022-11-20T03:00:07.832Z,32.70
2022-11-20T03:00:29.693Z,35.50
2022-11-20T03:00:51.888Z,33.05
2022-11-20T03:01:14.109Z,35.20
2022-11-20T03:01:36.478Z,35.15
2022-11-20T03:01:58.661Z,34.35
2022-11-20T03:02:21.455Z,33.88
2022-11-20T03:02:43.615Z,32.55
2022-11-20T03:03:05.370Z,33.00
2022-11-20T03:03:27.214Z,35.25
2022-11-20T03:03:49.617Z,33.03
2022-11-20T03:04:11.429Z,34.55
2022-11-20T03:04:33.581Z,35.60
2022-11-20T03:04:55.698Z,34.88
2022-11-20T03:05:17.451Z,33.50
2022-11-20T03:05:39.195Z,33.97
2022-11-20T03:06:01.518Z,33.92
2022-11-20T03:06:23.641Z,30.65
2022-11-20T03:06:45.402Z,35.75
2022-11-20T03:07:09.064Z,36.17
2022-11-20T03:07:31.327Z,38.30
2022-11-20T03:07:53.173Z,34.60
2022-11-20T03:08:14.916Z,35.05
2022-11-20T03:08:37.239Z,36.72
2022-11-20T03:08:59.070Z,34.67
2022-11-20T03:09:21.141Z,35.83
2022-11-20T03:09:43.542Z,35.25
2022-11-20T03:10:06.236Z,35.60
2022-11-20T03:10:28.438Z,35.83
2022-11-20T03:10:50.542Z,35.42
2022-11-20T03:11:12.853Z,33.15
2022-11-20T03:11:35.118Z,35.95
2022-11-20T03:11:57.315Z,33.83
2022-11-20T03:12:19.447Z,32.55
2022-11-20T03:12:41.587Z,31.85
2022-11-20T03:13:03.728Z,33.53
2022-11-20T03:13:26.878Z,32.50
2022-11-20T03:13:49.044Z,32.13
2022-11-20T03:14:10.882Z,33.53
2022-11-20T03:14:32.602Z,33.78
2022-11-20T03:14:54.347Z,33.75
2022-11-20T03:15:16.152Z,32.17
2022-11-20T03:15:38.333Z,35.67
2022-11-20T03:16:05.374Z,34.25
2022-11-20T03:16:27.074Z,33.20
2022-11-20T03:16:48.816Z,37.83
2022-11-20T03:17:10.951Z,35.10
2022-11-20T03:17:33.088Z,36.28
2022-11-20T03:17:56.448Z,37.58
2022-11-20T03:18:18.159Z,36.28
2022-11-20T03:18:41.711Z,35.20
2022-11-20T03:19:03.448Z,33.67
2022-11-20T03:19:25.448Z,35.42
2022-11-20T03:19:47.598Z,33.90
2022-11-20T03:20:10.040Z,33.83
2022-11-20T03:20:34.365Z,33.88
2022-11-20T03:20:59.973Z,34.72
2022-11-20T03:21:22.171Z,33.90
2022-11-20T03:21:43.944Z,34.30
2022-11-20T03:22:05.710Z,32.60
2022-11-20T03:22:30.349Z,34.17
2022-11-20T03:22:54.444Z,32.78
2022-11-20T03:23:16.198Z,36.28
2022-11-20T03:23:39.388Z,31.80
2022-11-20T03:24:01.914Z,31.67
2022-11-20T03:24:24.283Z,32.60
2022-11-20T03:24:47.142Z,34.90
2022-11-20T03:25:09.303Z,33.35
2022-11-20T03:25:31.381Z,37.33
2022-11-20T03:25:53.228Z,34.88
2022-11-20T03:26:23.344Z,32.15
2022-11-20T03:26:45.073Z,33.20
2022-11-20T03:27:06.816Z,34.60
2022-11-20T03:27:32.327Z,33.90
2022-11-20T03:27:55.267Z,32.00
2022-11-20T03:28:17.101Z,32.33
2022-11-20T03:28:39.018Z,32.95
2022-11-20T03:29:03.976Z,33.65
2022-11-20T03:29:25.884Z,33.65
2022-11-20T03:29:48.409Z,32.28
2022-11-20T03:30:10.628Z,33.58
2022-11-20T03:30:32.738Z,34.88
2022-11-20T03:30:54.960Z,33.90
2022-11-20T03:31:18.862Z,33.40
2022-11-20T03:31:42.350Z,33.97
2022-11-20T03:32:04.213Z,30.45
2022-11-20T03:32:25.938Z,32.70
2022-11-20T03:32:48.063Z,33.35
2022-11-20T03:33:10.218Z,32.30
2022-11-20T03:33:31.950Z,33.78
2022-11-20T03:33:54.153Z,34.72
2022-11-20T03:34:16.315Z,33.78
2022-11-20T03:34:38.150Z,32.22
2022-11-20T03:35:00.327Z,31.90
2022-11-20T03:35:22.470Z,31.90
2022-11-20T03:35:44.199Z,32.97
2022-11-20T03:36:09.102Z,32.50
2022-11-20T03:36:31.837Z,33.90
2022-11-20T03:36:53.936Z,33.08
2022-11-20T03:37:15.702Z,31.90
2022-11-20T03:37:37.481Z,34.08
2022-11-20T03:37:59.716Z,34.53
2022-11-20T03:38:21.874Z,37.28
2022-11-20T03:38:44.111Z,34.55
2022-11-20T03:39:06.342Z,33.65
2022-11-20T03:39:28.009Z,32.83
2022-11-20T03:39:50.137Z,33.15
2022-11-20T03:40:12.139Z,32.90
2022-11-20T03:40:36.102Z,32.55
2022-11-20T03:41:02.367Z,32.15
2022-11-20T03:41:32.108Z,31.40
2022-11-20T03:41:53.904Z,34.63
2022-11-20T03:42:34.514Z,34.80
2022-11-20T03:42:56.718Z,34.67
2022-11-20T03:43:18.521Z,33.80
2022-11-20T03:43:40.527Z,32.47
2022-11-20T03:44:04.619Z,33.13
2022-11-20T03:44:26.422Z,35.05
2022-11-20T03:44:48.145Z,34.63
2022-11-20T03:45:10.049Z,34.22
2022-11-20T03:45:32.209Z,36.72
2022-11-20T03:45:53.929Z,37.88
2022-11-20T03:46:15.636Z,35.55
2022-11-20T03:46:37.815Z,33.90
2022-11-20T03:46:59.965Z,35.13
2022-11-20T03:47:22.097Z,33.72
2022-11-20T03:47:44.485Z,31.42
2022-11-20T03:48:06.448Z,32.30
2022-11-20T03:48:28.618Z,33.15
2022-11-20T03:48:52.110Z,34.58
2022-11-20T03:49:14.429Z,34.60
2022-11-20T03:49:36.667Z,33.88
2022-11-20T03:49:58.826Z,35.45
2022-11-20T03:50:20.532Z,35.05
2022-11-20T03:50:42.204Z,36.50
2022-11-20T03:51:13.196Z,34.15
2022-11-20T03:51:36.712Z,36.15
2022-11-20T03:51:58.395Z,34.25
2022-11-20T03:52:20.534Z,31.48
2022-11-20T03:52:43.366Z,31.33
2022-11-20T03:53:05.126Z,35.35
2022-11-20T03:53:27.254Z,36.00
2022-11-20T03:53:50.152Z,35.65
2022-11-20T03:54:11.891Z,34.67
2022-11-20T03:54:34.029Z,31.63
2022-11-20T03:54:55.768Z,31.58
2022-11-20T03:55:17.576Z,33.58
2022-11-20T03:55:39.251Z,33.67
2022-11-20T03:56:00.995Z,32.05
2022-11-20T03:56:27.398Z,31.45
2022-11-20T03:56:49.570Z,33.83
2022-11-20T03:57:11.677Z,36.20
2022-11-20T03:57:33.490Z,32.70
2022-11-20T03:57:55.221Z,32.97
2022-11-20T03:58:16.915Z,34.22
2022-11-20T03:58:42.875Z,35.63
2022-11-20T03:59:05.228Z,36.80
2022-11-20T03:59:26.996Z,35.05
2022-11-20T03:59:48.777Z,34.97
2022-11-20T04:00:11.153Z,33.70
2022-11-20T04:00:33.305Z,37.42
2022-11-20T04:00:55.006Z,33.92
2022-11-20T04:01:22.626Z,33.38
2022-11-20T04:01:49.293Z,34.20
2022-11-20T04:02:11.404Z,32.30
2022-11-20T04:02:33.230Z,33.58
2022-11-20T04:02:58.514Z,33.83
2022-11-20T04:03:20.843Z,32.38
2022-11-20T04:03:43.372Z,33.80
2022-11-20T04:04:05.717Z,32.55
2022-11-20T04:04:27.447Z,33.10
2022-11-20T04:04:49.258Z,35.28
2022-11-20T04:05:11.053Z,31.83
2022-11-20T04:05:34.930Z,33.05
2022-11-20T04:05:56.691Z,32.67
2022-11-20T04:06:22.917Z,33.40
2022-11-20T04:06:45.002Z,30.88
2022-11-20T04:07:06.865Z,32.22
2022-11-20T04:07:29.023Z,33.03
2022-11-20T04:07:51.222Z,33.20
2022-11-20T04:08:13.343Z,33.38
2022-11-20T04:08:35.334Z,33.80
2022-11-20T04:08:58.522Z,32.42
2022-11-20T04:09:21.104Z,31.10
2022-11-20T04:09:43.517Z,30.05
2022-11-20T04:10:05.725Z,32.60
2022-11-20T04:10:27.879Z,32.85
2022-11-20T04:10:49.574Z,30.88
2022-11-20T04:11:16.736Z,30.30
2022-11-20T04:11:41.142Z,33.00
2022-11-20T04:12:02.865Z,34.60
2022-11-20T04:12:24.574Z,33.85
2022-11-20T04:12:46.349Z,34.05
2022-11-20T04:13:08.432Z,32.38
2022-11-20T04:13:30.178Z,34.13
2022-11-20T04:13:57.115Z,34.15
2022-11-20T04:14:19.325Z,33.25
2022-11-20T04:14:41.501Z,36.25
2022-11-20T04:15:03.700Z,32.10
2022-11-20T04:15:25.460Z,31.30
2022-11-20T04:15:47.598Z,32.15
2022-11-20T04:16:10.483Z,31.75
2022-11-20T04:16:33.774Z,31.10
2022-11-20T04:16:55.925Z,32.15
2022-11-20T04:17:17.999Z,32.97
2022-11-20T04:17:39.731Z,35.72
2022-11-20T04:18:01.494Z,32.20
2022-11-20T04:18:23.639Z,31.60
2022-11-20T04:18:45.812Z,31.98
2022-11-20T04:19:12.538Z,33.58
2022-11-20T04:19:34.654Z,31.52
2022-11-20T04:19:56.360Z,34.05
2022-11-20T04:20:18.491Z,34.50
2022-11-20T04:20:40.223Z,36.60
2022-11-20T04:21:02.635Z,34.03
2022-11-20T04:21:25.581Z,32.50
2022-11-20T04:21:47.778Z,34.63
2022-11-20T04:22:09.783Z,32.58
2022-11-20T04:22:31.913Z,33.22
2022-11-20T04:22:55.718Z,35.08
2022-11-20T04:23:17.480Z,33.60
2022-11-20T04:23:40.107Z,35.70
2022-11-20T04:24:02.137Z,35.10
2022-11-20T04:24:23.865Z,34.65
2022-11-20T04:24:46.097Z,35.40
2022-11-20T04:25:08.495Z,35.30
2022-11-20T04:25:30.258Z,34.20
2022-11-20T04:25:52.376Z,35.58
2022-11-20T04:26:14.093Z,35.72
2022-11-20T04:26:36.140Z,36.47
2022-11-20T04:26:58.314Z,38.15
2022-11-20T04:27:20.474Z,35.28
2022-11-20T04:27:42.395Z,34.10
2022-11-20T04:28:04.696Z,35.45
2022-11-20T04:28:26.403Z,37.20
2022-11-20T04:28:48.119Z,33.95
2022-11-20T04:29:12.582Z,30.92
2022-11-20T04:29:34.707Z,32.75
2022-11-20T04:29:56.444Z,30.80
2022-11-20T04:30:18.328Z,34.10
2022-11-20T04:30:40.105Z,37.92
2022-11-20T04:31:13.206Z,38.42
2022-11-20T04:31:36.189Z,36.88
2022-11-20T04:31:57.884Z,35.38
2022-11-20T04:32:19.599Z,35.80
2022-11-20T04:32:41.280Z,36.08
2022-11-20T04:33:02.983Z,35.05
2022-11-20T04:33:25.832Z,34.75
2022-11-20T04:33:48.932Z,34.17
2022-11-20T04:34:13.760Z,34.63
2022-11-20T04:34:35.916Z,33.28
2022-11-20T04:34:57.669Z,33.90
2022-11-20T04:35:19.850Z,34.80
2022-11-20T04:35:41.627Z,31.33
2022-11-20T04:36:07.793Z,29.52
2022-11-20T04:36:30.581Z,35.13
2022-11-20T04:36:52.364Z,34.33
2022-11-20T04:37:14.103Z,35.60
2022-11-20T04:37:36.204Z,37.22
2022-11-20T04:37:58.012Z,36.85
2022-11-20T04:38:20.125Z,33.40
2022-11-20T04:38:42.556Z,34.40
2022-11-20T04:39:06.535Z,34.50
2022-11-20T04:39:28.671Z,34.13
2022-11-20T04:39:50.926Z,33.95
2022-11-20T04:40:13.204Z,32.97
2022-11-20T04:40:34.928Z,36.28
2022-11-20T04:41:01.282Z,34.92
2022-11-20T04:41:25.099Z,35.35
2022-11-20T04:41:46.910Z,35.30
2022-11-20T04:42:28.694Z,35.85
2022-11-20T04:42:50.384Z,32.28
2022-11-20T04:43:12.456Z,36.30
2022-11-20T04:43:35.083Z,37.92
2022-11-20T04:44:00.726Z,34.65
2022-11-20T04:44:23.008Z,33.58
2022-11-20T04:44:45.123Z,34.20
2022-11-20T04:45:07.600Z,35.65
2022-11-20T04:45:29.331Z,33.47
2022-11-20T04:45:58.294Z,34.13
2022-11-20T04:46:21.611Z,33.53
2022-11-20T04:46:44.410Z,33.42
2022-11-20T04:47:06.393Z,35.72
2022-11-20T04:47:28.572Z,32.38
2022-11-20T04:47:51.134Z,32.78
2022-11-20T04:48:12.819Z,32.80
2022-11-20T04:48:36.135Z,35.75
2022-11-20T04:48:58.519Z,34.53
2022-11-20T04:49:20.893Z,37.75
2022-11-20T04:49:42.899Z,35.17
2022-11-20T04:50:05.349Z,35.22
2022-11-20T04:50:27.280Z,34.40
2022-11-20T04:50:49.442Z,35.05
2022-11-20T04:51:11.602Z,34.45
2022-11-20T04:51:34.271Z,34.00
2022-11-20T04:51:56.017Z,34.28
2022-11-20T04:52:17.814Z,34.28
2022-11-20T04:52:39.906Z,36.92
2022-11-20T04:53:01.665Z,34.22
2022-11-20T04:53:24.033Z,35.38
2022-11-20T04:53:46.298Z,34.22
2022-11-20T04:54:08.088Z,36.38
2022-11-20T04:54:29.935Z,35.53
2022-11-20T04:54:53.849Z,35.42
2022-11-20T04:55:16.058Z,34.63
2022-11-20T04:55:37.820Z,36.53
2022-11-20T04:56:08.337Z,33.70
2022-11-20T04:56:30.296Z,36.47
2022-11-20T04:56:52.368Z,36.38
2022-11-20T04:57:14.912Z,33.85
2022-11-20T04:57:36.709Z,33.80
2022-11-20T04:57:59.801Z,36.35
2022-11-20T04:58:23.277Z,36.13
2022-11-20T04:58:45.351Z,35.70
2022-11-20T04:59:07.554Z,33.60
2022-11-20T04:59:29.558Z,35.20
2022-11-20T04:59:52.196Z,38.22
2022-11-20T05:00:14.863Z,36.08
2022-11-20T05:00:36.590Z,36.03